createdAt,value
2022-10-23T00:01:27.388Z,92.90
2022-10-23T00:04:30.325Z,92.90
2022-10-23T00:07:33.608Z,93.10
2022-10-23T00:10:41.384Z,92.90
2022-10-23T00:13:44.704Z,93.10
2022-10-23T00:16:47.612Z,93.10
2022-10-23T00:19:50.731Z,93.10
2022-10-23T00:22:53.625Z,92.90
2022-10-23T00:25:58.178Z,93.00
2022-10-23T00:29:01.263Z,93.00
2022-10-23T00:32:04.287Z,93.00
2022-10-23T00:35:08.206Z,92.90
2022-10-23T00:38:12.173Z,92.70
2022-10-23T00:41:20.277Z,92.80
2022-10-23T00:45:00.779Z,92.70
2022-10-23T00:48:04.511Z,92.70
2022-10-23T00:51:07.427Z,92.70
2022-10-23T00:54:23.614Z,92.50
2022-10-23T01:00:45.074Z,92.60
2022-10-23T01:03:48.502Z,92.60
2022-10-23T01:06:59.321Z,92.80
2022-10-23T01:10:10.705Z,93.10
2022-10-23T01:13:20.060Z,92.70
2022-10-23T01:16:28.050Z,92.60
2022-10-23T01:19:45.281Z,92.70
2022-10-23T01:23:23.343Z,92.60
2022-10-23T01:26:36.906Z,92.40
2022-10-23T01:29:47.001Z,92.40
2022-10-23T01:32:53.515Z,92.20
2022-10-23T01:36:02.165Z,92.20
2022-10-23T01:39:09.169Z,92.20
2022-10-23T01:42:16.680Z,92.20
2022-10-23T01:45:26.841Z,92.30
2022-10-23T01:48:32.196Z,92.40
2022-10-23T01:51:37.728Z,92.40
2022-10-23T01:54:43.368Z,92.60
2022-10-23T01:57:48.233Z,92.70
2022-10-23T02:00:55.550Z,92.50
2022-10-23T02:04:01.193Z,92.50
2022-10-23T02:07:04.259Z,92.70
2022-10-23T02:10:09.096Z,92.60
2022-10-23T02:13:17.123Z,92.50
2022-10-23T02:16:29.642Z,92.70
2022-10-23T02:19:39.723Z,92.60
2022-10-23T02:22:50.121Z,92.40
2022-10-23T02:25:56.326Z,92.50
2022-10-23T02:32:16.598Z,92.50
2022-10-23T02:35:21.993Z,92.60
2022-10-23T02:38:30.578Z,92.50
2022-10-23T02:41:45.236Z,92.50
2022-10-23T02:45:00.282Z,92.60
2022-10-23T02:48:12.592Z,92.70
2022-10-23T02:51:22.309Z,92.90
2022-10-23T02:54:36.086Z,92.80
2022-10-23T02:57:43.936Z,92.90
2022-10-23T03:00:52.525Z,92.90
2022-10-23T03:04:00.330Z,93.00
2022-10-23T03:07:03.314Z,93.00
2022-10-23T03:10:07.204Z,92.90
2022-10-23T03:13:11.426Z,93.00
2022-10-23T03:16:14.345Z,93.00
2022-10-23T03:19:18.794Z,92.80
2022-10-23T03:22:21.719Z,92.80
2022-10-23T03:25:24.631Z,92.90
2022-10-23T03:28:27.499Z,92.90
2022-10-23T03:31:30.418Z,92.80
2022-10-23T03:34:34.825Z,92.80
2022-10-23T03:37:37.733Z,92.70
2022-10-23T03:40:40.618Z,92.70
2022-10-23T03:43:43.487Z,92.70
2022-10-23T03:46:46.396Z,92.70
2022-10-23T03:49:50.631Z,93.00
2022-10-23T03:52:53.531Z,92.90
2022-10-23T03:55:56.430Z,92.70
2022-10-23T03:58:59.382Z,92.80
2022-10-23T04:02:02.389Z,92.70
2022-10-23T04:05:07.557Z,92.60
2022-10-23T04:08:10.731Z,93.00
2022-10-23T04:11:13.640Z,93.10
2022-10-23T04:14:16.519Z,93.10
2022-10-23T04:17:19.451Z,92.90
2022-10-23T04:20:23.814Z,93.00
2022-10-23T04:23:26.985Z,93.20
2022-10-23T04:26:29.932Z,93.00
2022-10-23T04:29:33.178Z,93.00
2022-10-23T04:32:36.335Z,93.20
2022-10-23T04:35:40.631Z,93.20
2022-10-23T04:38:43.685Z,93.20
2022-10-23T04:41:46.572Z,93.00
2022-10-23T04:44:49.445Z,93.30
2022-10-23T04:47:53.400Z,93.40
2022-10-23T04:50:59.276Z,93.30
2022-10-23T04:54:02.202Z,93.30
2022-10-23T04:57:05.319Z,93.30
2022-10-23T05:00:11.152Z,93.30
2022-10-23T05:03:14.076Z,93.40
2022-10-23T05:06:18.317Z,93.40
2022-10-23T05:09:22.250Z,93.60
2022-10-23T05:12:26.619Z,93.80
2022-10-23T05:15:29.576Z,93.70
2022-10-23T05:18:35.805Z,93.80
2022-10-23T05:21:41.691Z,93.60
2022-10-23T05:24:48.270Z,93.70
2022-10-23T05:27:53.569Z,93.60
2022-10-23T05:30:56.863Z,93.60
2022-10-23T05:34:01.302Z,93.80
2022-10-23T05:37:08.664Z,93.90
2022-10-23T05:40:12.880Z,93.90
2022-10-23T05:43:15.801Z,93.90
2022-10-23T05:46:18.683Z,93.90
2022-10-23T05:49:21.661Z,93.90
2022-10-23T05:52:25.913Z,94.00
2022-10-23T05:55:28.801Z,94.00
2022-10-23T05:58:31.820Z,94.10
2022-10-23T06:01:35.317Z,94.10
2022-10-23T06:04:38.609Z,94.10
2022-10-23T06:07:43.037Z,94.20
2022-10-23T06:10:46.185Z,94.10
2022-10-23T06:13:49.452Z,94.10
2022-10-23T06:16:52.586Z,94.00
2022-10-23T06:20:00.707Z,94.30
2022-10-23T06:23:05.075Z,94.20
2022-10-23T06:26:10.164Z,94.30
2022-10-23T06:29:13.033Z,94.40
2022-10-23T06:32:16.027Z,94.40
2022-10-23T06:35:18.941Z,94.40
2022-10-23T06:38:23.473Z,94.50
2022-10-23T06:41:26.452Z,94.70
2022-10-23T06:44:29.342Z,95.00
2022-10-23T06:47:32.279Z,95.20
2022-10-23T06:50:35.292Z,95.30
2022-10-23T06:53:39.814Z,95.50
2022-10-23T06:56:42.731Z,95.80
2022-10-23T06:59:45.623Z,96.10
2022-10-23T07:02:48.556Z,96.30
2022-10-23T07:05:51.422Z,96.50
2022-10-23T07:08:55.694Z,96.50
2022-10-23T07:11:58.665Z,96.70
2022-10-23T07:15:01.591Z,96.80
2022-10-23T07:18:04.876Z,96.90
2022-10-23T07:21:07.936Z,96.90
2022-10-23T07:24:12.255Z,97.20
2022-10-23T07:27:15.185Z,97.40
2022-10-23T07:30:18.558Z,97.60
2022-10-23T07:33:21.725Z,97.60
2022-10-23T07:36:24.706Z,97.70
2022-10-23T07:39:29.172Z,97.70
2022-10-23T07:42:32.059Z,97.70
2022-10-23T07:45:35.027Z,97.50
2022-10-23T07:48:38.446Z,97.60
2022-10-23T07:51:41.415Z,97.70
2022-10-23T07:54:45.817Z,97.60
2022-10-23T07:57:48.747Z,97.20
2022-10-23T08:00:56.238Z,97.60
2022-10-23T08:03:59.362Z,97.50
2022-10-23T08:07:02.361Z,98.10
2022-10-23T08:10:07.803Z,97.50
2022-10-23T08:13:13.071Z,97.70
2022-10-23T08:16:15.982Z,97.30
2022-10-23T08:19:18.947Z,97.00
2022-10-23T08:22:21.943Z,96.90
2022-10-23T08:25:26.264Z,96.70
2022-10-23T08:28:29.799Z,97.10
2022-10-23T08:31:32.800Z,96.20
2022-10-23T08:34:37.819Z,96.10
2022-10-23T08:37:40.827Z,96.10
2022-10-23T08:40:47.589Z,95.70
2022-10-23T08:43:55.514Z,96.00
2022-10-23T08:47:05.254Z,95.80
2022-10-23T08:50:15.682Z,95.60
2022-10-23T08:53:26.037Z,94.80
2022-10-23T08:56:35.569Z,94.30
2022-10-23T08:59:44.937Z,93.90
2022-10-23T09:02:49.862Z,94.20
2022-10-23T09:06:09.220Z,94.50
2022-10-23T09:09:46.062Z,94.50
2022-10-23T09:12:50.953Z,93.90
2022-10-23T09:16:04.001Z,94.00
2022-10-23T09:19:13.413Z,93.50
2022-10-23T09:22:16.659Z,93.40
2022-10-23T09:25:25.128Z,97.80
2022-10-23T09:28:32.726Z,97.80
2022-10-23T09:31:35.700Z,97.70
2022-10-23T09:34:38.671Z,96.70
2022-10-23T09:37:48.530Z,96.30
2022-10-23T09:40:52.119Z,95.90
2022-10-23T09:44:04.576Z,94.10
2022-10-23T09:47:12.110Z,92.10
2022-10-23T09:50:22.183Z,90.80
2022-10-23T09:53:33.184Z,93.20
2022-10-23T09:56:41.651Z,91.90
2022-10-23T09:59:51.206Z,92.60
2022-10-23T10:03:00.128Z,90.00
2022-10-23T10:09:13.059Z,88.60
2022-10-23T10:12:29.304Z,90.70
2022-10-23T10:15:38.559Z,88.60
2022-10-23T10:18:48.638Z,86.40
2022-10-23T10:22:04.841Z,84.60
2022-10-23T10:25:14.631Z,85.10
2022-10-23T10:28:31.860Z,85.60
2022-10-23T10:31:50.778Z,84.90
2022-10-23T10:35:03.876Z,82.80
2022-10-23T10:38:44.462Z,78.50
2022-10-23T10:41:56.830Z,79.30
2022-10-23T10:45:17.993Z,81.50
2022-10-23T10:48:40.404Z,80.40
2022-10-23T10:51:53.003Z,80.00
2022-10-23T10:55:03.699Z,80.70
2022-10-23T10:58:16.854Z,76.80
2022-10-23T11:01:26.804Z,75.50
2022-10-23T11:04:37.084Z,77.60
2022-10-23T11:07:44.322Z,79.80
2022-10-23T11:10:51.360Z,76.90
2022-10-23T11:13:54.448Z,76.40
2022-10-23T11:17:03.435Z,77.80
2022-10-23T11:20:23.206Z,79.40
2022-10-23T11:23:45.861Z,78.50
2022-10-23T11:27:03.053Z,77.70
2022-10-23T11:30:20.508Z,78.10
2022-10-23T11:34:15.504Z,79.10
2022-10-23T11:37:21.749Z,79.90
2022-10-23T11:40:26.657Z,79.20
2022-10-23T11:43:33.354Z,79.50
2022-10-23T11:46:38.768Z,78.70
2022-10-23T11:49:41.653Z,82.10
2022-10-23T11:53:15.217Z,81.50
2022-10-23T11:56:27.440Z,80.80
2022-10-23T11:59:32.682Z,81.00
2022-10-23T12:02:38.479Z,79.10
2022-10-23T12:05:44.509Z,79.60
2022-10-23T12:08:53.204Z,80.10
2022-10-23T12:12:28.221Z,80.30
2022-10-23T12:15:32.240Z,78.40
2022-10-23T12:18:46.939Z,78.70
2022-10-23T12:21:53.239Z,78.60
2022-10-23T12:25:02.084Z,78.80
2022-10-23T12:28:13.329Z,78.40
2022-10-23T12:31:27.304Z,78.20
2022-10-23T12:34:39.967Z,76.10
2022-10-23T12:37:56.095Z,79.70
2022-10-23T12:41:11.189Z,75.30
2022-10-23T12:44:14.196Z,77.30
2022-10-23T12:47:19.708Z,77.60
2022-10-23T12:50:25.090Z,78.70
2022-10-23T12:53:27.999Z,79.70
2022-10-23T12:56:38.976Z,79.80
2022-10-23T12:59:43.883Z,77.70
2022-10-23T13:02:47.218Z,76.50
2022-10-23T13:05:52.464Z,77.60
2022-10-23T13:08:56.277Z,78.10
2022-10-23T13:12:03.977Z,77.40
2022-10-23T13:15:17.405Z,75.10
2022-10-23T13:18:20.422Z,76.50
2022-10-23T13:21:24.815Z,76.50
2022-10-23T13:24:30.309Z,75.30
2022-10-23T13:27:35.715Z,73.90
2022-10-23T13:30:42.636Z,73.60
2022-10-23T13:33:47.800Z,73.80
2022-10-23T13:36:57.727Z,75.00
2022-10-23T13:40:02.260Z,75.30
2022-10-23T13:43:19.160Z,73.80
2022-10-23T13:46:24.382Z,76.30
2022-10-23T13:49:27.511Z,75.40
2022-10-23T13:52:30.449Z,75.50
2022-10-23T13:55:34.231Z,74.30
2022-10-23T13:58:38.730Z,75.60
2022-10-23T14:01:41.955Z,74.50
2022-10-23T14:04:46.308Z,75.40
2022-10-23T14:07:49.890Z,76.00
2022-10-23T14:10:52.792Z,75.80
2022-10-23T14:13:57.687Z,74.80
2022-10-23T14:17:00.826Z,74.30
2022-10-23T14:20:05.884Z,74.00
2022-10-23T14:23:09.342Z,74.60
2022-10-23T14:26:14.688Z,76.10
2022-10-23T14:29:23.933Z,73.50
2022-10-23T14:32:27.497Z,76.00
2022-10-23T14:35:30.591Z,75.90
2022-10-23T14:38:33.478Z,74.70
2022-10-23T14:41:37.284Z,75.80
2022-10-23T14:44:43.287Z,76.90
2022-10-23T14:47:46.531Z,77.10
2022-10-23T14:50:50.790Z,77.90
2022-10-23T14:53:59.369Z,78.90
2022-10-23T14:57:02.715Z,79.20
2022-10-23T15:00:08.040Z,79.50
2022-10-23T15:03:10.971Z,79.80
2022-10-23T15:06:17.601Z,80.50
2022-10-23T15:09:21.467Z,81.30
2022-10-23T15:12:24.738Z,81.30
2022-10-23T15:15:29.066Z,82.00
2022-10-23T15:18:32.333Z,82.40
2022-10-23T15:21:35.243Z,82.90
2022-10-23T15:24:38.294Z,83.40
2022-10-23T15:27:41.253Z,84.40
2022-10-23T15:30:46.043Z,84.00
2022-10-23T15:33:48.987Z,84.20
2022-10-23T15:36:53.043Z,84.30
2022-10-23T15:40:01.213Z,85.10
2022-10-23T15:43:05.933Z,85.50
2022-10-23T15:46:10.201Z,86.30
2022-10-23T15:49:13.722Z,87.40
2022-10-23T15:52:16.738Z,86.30
2022-10-23T15:55:19.663Z,86.60
2022-10-23T15:58:22.549Z,87.00
2022-10-23T16:01:27.212Z,87.10
2022-10-23T16:04:30.727Z,88.20
2022-10-23T16:07:33.668Z,88.00
2022-10-23T16:10:40.786Z,88.00
2022-10-23T16:13:44.632Z,88.40
2022-10-23T16:16:48.884Z,88.50
2022-10-23T16:19:51.773Z,88.70
2022-10-23T16:22:55.014Z,88.70
2022-10-23T16:25:57.926Z,89.10
2022-10-23T16:29:02.914Z,89.40
2022-10-23T16:32:07.297Z,89.60
2022-10-23T16:35:12.994Z,89.50
2022-10-23T16:38:16.132Z,89.60
2022-10-23T16:41:19.151Z,89.70
2022-10-23T16:44:22.029Z,90.00
2022-10-23T16:47:27.899Z,89.80
2022-10-23T16:50:30.821Z,90.10
2022-10-23T16:53:34.226Z,90.20
2022-10-23T16:56:37.334Z,90.30
2022-10-23T16:59:40.217Z,90.30
2022-10-23T17:02:44.792Z,90.80
2022-10-23T17:05:47.908Z,91.20
2022-10-23T17:08:51.253Z,91.30
2022-10-23T17:11:54.747Z,91.30
2022-10-23T17:14:57.761Z,91.10
2022-10-23T17:18:02.039Z,90.80
2022-10-23T17:21:05.535Z,91.20
2022-10-23T17:24:09.000Z,91.50
2022-10-23T17:27:11.940Z,91.50
2022-10-23T17:30:15.015Z,91.10
2022-10-23T17:33:19.786Z,91.50
2022-10-23T17:36:23.327Z,91.70
2022-10-23T17:39:28.701Z,91.90
2022-10-23T17:42:31.596Z,92.20
2022-10-23T17:45:36.509Z,92.80
2022-10-23T17:48:41.866Z,93.00
2022-10-23T17:51:44.750Z,93.10
2022-10-23T17:54:47.628Z,93.20
2022-10-23T17:57:50.495Z,93.30
2022-10-23T18:00:53.574Z,93.40
2022-10-23T18:04:01.339Z,93.40
2022-10-23T18:07:04.237Z,93.60
2022-10-23T18:10:07.850Z,93.80
2022-10-23T18:13:10.801Z,93.70
2022-10-23T18:16:14.605Z,93.90
2022-10-23T18:19:19.285Z,94.10
2022-10-23T18:22:22.162Z,94.20
2022-10-23T18:25:25.127Z,94.30
2022-10-23T18:28:29.408Z,94.30
2022-10-23T18:31:32.439Z,94.20
2022-10-23T18:34:36.848Z,94.50
2022-10-23T18:37:41.526Z,94.40
2022-10-23T18:40:45.314Z,94.50
2022-10-23T18:43:48.272Z,94.20
2022-10-23T18:46:52.163Z,94.10
2022-10-23T18:49:56.430Z,93.90
2022-10-23T18:52:59.337Z,93.60
2022-10-23T18:56:02.241Z,93.60
2022-10-23T18:59:07.505Z,93.40
2022-10-23T19:02:11.715Z,93.30
2022-10-23T19:05:16.088Z,93.20
2022-10-23T19:08:19.165Z,93.30
2022-10-23T19:11:23.925Z,93.20
2022-10-23T19:14:28.664Z,93.40
2022-10-23T19:17:33.690Z,93.30
2022-10-23T19:20:38.931Z,93.40
2022-10-23T19:23:43.736Z,93.40
2022-10-23T19:26:46.720Z,93.50
2022-10-23T19:29:51.232Z,93.60
2022-10-23T19:32:54.725Z,93.70
2022-10-23T19:36:02.291Z,93.90
2022-10-23T19:39:07.800Z,93.70
2022-10-23T19:42:10.676Z,94.20
2022-10-23T19:45:15.957Z,94.30
2022-10-23T19:48:18.867Z,94.60
2022-10-23T19:51:23.134Z,94.80
2022-10-23T19:54:26.085Z,94.90
2022-10-23T19:57:30.381Z,95.00
2022-10-23T20:00:33.295Z,94.90
2022-10-23T20:03:36.192Z,94.90
2022-10-23T20:06:40.498Z,95.00
2022-10-23T20:09:43.541Z,95.20
2022-10-23T20:12:56.369Z,95.20
2022-10-23T20:16:00.316Z,95.40
2022-10-23T20:19:04.122Z,95.50
2022-10-23T20:22:08.453Z,95.80
2022-10-23T20:25:11.323Z,95.50
2022-10-23T20:28:15.245Z,95.60
2022-10-23T20:31:20.556Z,95.90
2022-10-23T20:34:23.448Z,95.90
2022-10-23T20:37:27.899Z,96.20
2022-10-23T20:40:31.362Z,96.30
2022-10-23T20:43:35.182Z,96.80
2022-10-23T20:46:38.141Z,96.60
2022-10-23T20:49:41.093Z,96.90
2022-10-23T20:52:45.565Z,96.90
2022-10-23T20:55:48.453Z,97.00
2022-10-23T20:58:51.841Z,96.70
2022-10-23T21:01:56.380Z,96.90
2022-10-23T21:04:59.545Z,96.90
2022-10-23T21:08:03.813Z,97.10
2022-10-23T21:11:07.958Z,97.40
2022-10-23T21:14:10.915Z,97.80
2022-10-23T21:17:17.050Z,97.50
2022-10-23T21:20:19.974Z,97.60
2022-10-23T21:23:24.286Z,97.30
2022-10-23T21:26:29.505Z,97.60
2022-10-23T21:29:32.613Z,97.50
2022-10-23T21:32:35.481Z,97.50
2022-10-23T21:35:43.249Z,97.50
2022-10-23T21:38:58.466Z,97.50
2022-10-23T21:42:01.681Z,97.60
2022-10-23T21:45:05.259Z,97.40
2022-10-23T21:48:08.134Z,97.50
2022-10-23T21:51:18.093Z,97.50
2022-10-23T21:54:22.327Z,97.10
2022-10-23T21:57:25.266Z,97.20
2022-10-23T22:00:28.310Z,97.30
2022-10-23T22:03:31.198Z,96.90
2022-10-23T22:06:34.220Z,97.30
2022-10-23T22:09:38.451Z,97.50
2022-10-23T22:12:41.644Z,98.00
2022-10-23T22:18:52.316Z,96.40
2022-10-23T22:21:55.301Z,96.00
2022-10-23T22:24:59.872Z,95.70
2022-10-23T22:28:03.093Z,95.50
2022-10-23T22:31:06.245Z,95.40
2022-10-23T22:34:25.090Z,95.40
2022-10-23T22:37:35.276Z,95.10
2022-10-23T22:40:43.046Z,95.10
2022-10-23T22:43:48.609Z,95.20
2022-10-23T22:46:52.013Z,95.80
2022-10-23T22:49:54.859Z,95.90
2022-10-23T22:52:57.740Z,95.80
2022-10-23T22:56:02.181Z,95.20
2022-10-23T22:59:05.745Z,95.10
2022-10-23T23:02:09.134Z,94.80
2022-10-23T23:05:13.240Z,95.20
2022-10-23T23:08:16.348Z,95.00
2022-10-23T23:11:22.723Z,94.70
2022-10-23T23:14:25.800Z,94.10
2022-10-23T23:17:28.974Z,94.30
2022-10-23T23:20:31.913Z,94.30
2022-10-23T23:23:35.021Z,93.40
2022-10-23T23:26:39.268Z,93.20
2022-10-23T23:29:42.202Z,92.50
2022-10-23T23:32:47.924Z,92.40
2022-10-23T23:35:50.798Z,92.20
2022-10-23T23:38:55.173Z,91.80
2022-10-23T23:41:59.593Z,91.90
2022-10-23T23:45:13.554Z,92.70
2022-10-23T23:48:17.345Z,92.20
2022-10-23T23:51:23.465Z,92.70
2022-10-23T23:54:26.417Z,92.80
2022-10-23T23:57:31.055Z,93.90
